首页
METAR-TAF:

METAR-TAF

机场 :

Burnett County Airport

Siren, 威斯康辛州, 美国

纬度: 45-49-22N, 经度: 092-22-21W, 海拔: 301米

当前天气观测

该预报发布于22分钟前的20:35 UTC
风速9节,风向西,有时为16节阵风
温度 23°C
湿度 38%
气压 1014 hPa
能見度: 16.1公里
散云层高于5500英尺
散云层高于7000英尺

METAR: KRZN 232035Z AUTO 27009G16KT 10SM SCT055 SCT070 23/08 A2993 RMK AO2 T02310078

时间: 15:57 (20:57 UTC)


TAF: 丢失

超过4000个机场的气象观测和天气预报(METAR&TAF报告)。

可查询的气象台以黄色和红色小点在地图上表示。

将鼠标移到小点上方,可查看气象台名称。

然后点击查看天气观测和预报。

如需切换地图:点击带黑十字的绿色按钮放大地图;点击带横线的绿色按钮缩小地图;或者点击绿色箭头查看邻近地区的地图。


METAR-TAF: